createdAt,value
2019-04-05T00:02:14.453Z,48.65
2019-04-05T00:04:43.044Z,49.20
2019-04-05T00:07:11.696Z,47.73
2019-04-05T00:09:42.958Z,42.93
2019-04-05T00:12:13.003Z,46.77
2019-04-05T00:14:41.746Z,45.78
2019-04-05T00:17:10.247Z,43.85
2019-04-05T00:19:40.366Z,53.02
2019-04-05T00:22:09.397Z,52.10
2019-04-05T00:24:39.934Z,50.50
2019-04-05T00:27:09.576Z,55.15
2019-04-05T00:29:39.522Z,53.23
2019-04-05T00:32:08.276Z,56.98
2019-04-05T00:34:36.766Z,51.95
2019-04-05T00:37:07.102Z,55.40
2019-04-05T00:39:36.314Z,55.92
2019-04-05T00:42:06.140Z,54.98
2019-04-05T00:44:34.790Z,56.28
2019-04-05T00:47:03.466Z,55.35
2019-04-05T00:49:35.252Z,55.98
2019-04-05T00:52:03.911Z,49.38
2019-04-05T00:54:34.305Z,56.20
2019-04-05T00:57:05.057Z,55.65
2019-04-05T00:59:33.686Z,57.93
2019-04-05T01:02:02.318Z,61.00
2019-04-05T01:04:30.898Z,53.98
2019-04-05T01:06:59.399Z,58.13
2019-04-05T01:09:27.976Z,59.18
2019-04-05T01:11:56.534Z,61.20
2019-04-05T01:14:26.082Z,59.40
2019-04-05T01:16:54.855Z,58.28
2019-04-05T01:19:31.315Z,56.02
2019-04-05T01:22:02.864Z,51.35
2019-04-05T01:24:31.596Z,65.37
2019-04-05T01:27:00.736Z,60.00
2019-04-05T01:29:29.307Z,59.53
2019-04-05T01:31:58.216Z,58.60
2019-04-05T01:34:27.608Z,59.85
2019-04-05T01:36:56.332Z,66.40
2019-04-05T01:39:24.908Z,66.60
2019-04-05T01:41:53.493Z,64.47
2019-04-05T01:44:22.205Z,69.00
2019-04-05T01:46:52.253Z,61.70
2019-04-05T01:49:20.921Z,62.67
2019-04-05T01:51:49.857Z,64.55
2019-04-05T01:54:20.713Z,65.00
2019-04-05T01:56:51.136Z,69.90
2019-04-05T01:59:22.789Z,63.42
2019-04-05T02:01:51.295Z,61.40
2019-04-05T02:04:21.432Z,61.58
2019-04-05T02:06:50.091Z,64.00
2019-04-05T02:09:18.725Z,58.92
2019-04-05T02:11:47.352Z,59.98
2019-04-05T02:14:16.027Z,66.70
2019-04-05T02:16:47.279Z,64.37
2019-04-05T02:19:17.567Z,60.95
2019-04-05T02:21:46.128Z,67.95
2019-04-05T02:24:14.761Z,65.70
2019-04-05T02:26:43.693Z,59.75
2019-04-05T02:29:12.343Z,63.50
2019-04-05T02:31:40.914Z,65.70
2019-04-05T02:34:09.565Z,65.55
2019-04-05T02:36:38.216Z,59.83
2019-04-05T02:39:08.083Z,60.25
2019-04-05T02:41:37.910Z,56.58
2019-04-05T02:44:09.611Z,54.53
2019-04-05T02:46:41.407Z,62.80
2019-04-05T02:49:10.664Z,56.30
2019-04-05T02:51:41.074Z,62.80
2019-04-05T02:54:13.586Z,65.37
2019-04-05T02:56:43.504Z,53.38
2019-04-05T02:59:13.515Z,63.15
2019-04-05T03:01:44.418Z,62.43
2019-04-05T03:04:13.424Z,63.48
2019-04-05T03:06:42.896Z,61.33
2019-04-05T03:09:12.101Z,61.88
2019-04-05T03:11:43.451Z,63.05
2019-04-05T03:14:13.054Z,57.00
2019-04-05T03:16:44.643Z,63.83
2019-04-05T03:19:16.158Z,58.55
2019-04-05T03:21:47.701Z,61.55
2019-04-05T03:24:20.856Z,58.02
2019-04-05T03:26:52.370Z,57.58
2019-04-05T03:29:21.161Z,65.35
2019-04-05T03:31:49.778Z,58.38
2019-04-05T03:34:21.647Z,55.65
2019-04-05T03:36:51.899Z,61.50
2019-04-05T03:39:20.605Z,60.40
2019-04-05T03:41:50.973Z,65.83
2019-04-05T03:44:23.194Z,62.75
2019-04-05T03:46:57.070Z,66.02
2019-04-05T03:49:24.077Z,60.03
2019-04-05T03:51:52.704Z,63.38
2019-04-05T03:54:21.731Z,61.77
2019-04-05T03:56:50.551Z,62.35
2019-04-05T03:59:21.064Z,59.42
2019-04-05T04:01:49.595Z,65.20
2019-04-05T04:04:18.393Z,66.77
2019-04-05T04:06:47.102Z,67.37
2019-04-05T04:09:15.719Z,50.05
2019-04-05T04:11:44.322Z,58.20
2019-04-05T04:14:15.388Z,63.98
2019-04-05T04:16:44.005Z,67.42
2019-04-05T04:19:13.590Z,64.92
2019-04-05T04:21:47.825Z,68.28
2019-04-05T04:24:16.665Z,59.85
2019-04-05T04:26:46.697Z,68.07
2019-04-05T04:29:16.849Z,65.17
2019-04-05T04:31:45.667Z,63.98
2019-04-05T04:34:14.495Z,64.72
2019-04-05T04:36:43.033Z,62.23
2019-04-05T04:39:12.097Z,64.07
2019-04-05T04:41:42.177Z,73.00
2019-04-05T04:44:12.219Z,66.60
2019-04-05T04:46:41.017Z,72.80
2019-04-05T04:49:10.038Z,60.05
2019-04-05T04:51:39.416Z,64.72
2019-04-05T04:54:08.154Z,67.47
2019-04-05T04:56:38.456Z,72.15
2019-04-05T04:59:08.020Z,69.87
2019-04-05T05:01:37.016Z,68.25
2019-04-05T05:04:08.215Z,72.75
2019-04-05T05:06:36.098Z,69.07
2019-04-05T05:09:07.094Z,71.97
2019-04-05T05:11:36.395Z,69.85
2019-04-05T05:14:11.300Z,73.97
2019-04-05T05:16:39.838Z,72.10
2019-04-05T05:19:08.610Z,65.52
2019-04-05T05:21:37.321Z,68.30
2019-04-05T05:24:06.470Z,68.72
2019-04-05T05:26:35.153Z,71.60
2019-04-05T05:29:04.077Z,69.03
2019-04-05T05:31:32.626Z,69.87
2019-04-05T05:34:01.333Z,63.60
2019-04-05T05:36:29.929Z,67.65
2019-04-05T05:38:58.562Z,74.27
2019-04-05T05:41:27.123Z,69.10
2019-04-05T05:43:58.595Z,74.00
2019-04-05T05:46:27.697Z,75.83
2019-04-05T05:48:57.890Z,67.08
2019-04-05T05:51:26.452Z,69.90
2019-04-05T05:53:55.074Z,78.60
2019-04-05T05:56:23.584Z,75.20
2019-04-05T05:58:57.572Z,68.40
2019-04-05T06:01:23.811Z,66.22
2019-04-05T06:03:52.318Z,70.30
2019-04-05T06:06:23.816Z,71.05
2019-04-05T06:08:54.105Z,61.73
2019-04-05T06:11:22.666Z,73.40
2019-04-05T06:13:51.155Z,67.08
2019-04-05T06:16:19.692Z,67.55
2019-04-05T06:18:49.951Z,66.65
2019-04-05T06:21:18.877Z,66.07
2019-04-05T06:23:47.367Z,62.55
2019-04-05T06:26:15.910Z,66.35
2019-04-05T06:28:44.524Z,63.40
2019-04-05T06:31:14.558Z,60.88
2019-04-05T06:33:43.090Z,66.17
2019-04-05T06:36:14.452Z,64.72
2019-04-05T06:38:44.452Z,64.45
2019-04-05T06:41:12.940Z,60.33
2019-04-05T06:43:41.439Z,56.92
2019-04-05T06:46:09.991Z,56.80
2019-04-05T06:48:38.449Z,59.83
2019-04-05T06:51:07.007Z,60.35
2019-04-05T06:53:35.490Z,58.75
2019-04-05T06:56:04.080Z,56.95
2019-04-05T06:58:32.563Z,58.78
2019-04-05T07:01:01.179Z,53.58
2019-04-05T07:03:29.720Z,62.30
2019-04-05T07:05:58.247Z,54.53
2019-04-05T07:08:27.205Z,57.62
2019-04-05T07:10:55.695Z,62.15
2019-04-05T07:13:27.204Z,64.07
2019-04-05T07:15:54.533Z,59.70
2019-04-05T07:18:33.966Z,63.48
2019-04-05T07:20:58.024Z,61.75
2019-04-05T07:23:29.436Z,57.88
2019-04-05T07:25:57.911Z,61.77
2019-04-05T07:28:26.506Z,60.48
2019-04-05T07:30:54.990Z,57.30
2019-04-05T07:33:24.784Z,60.98
2019-04-05T07:35:53.475Z,62.23
2019-04-05T07:38:22.345Z,64.15
2019-04-05T07:40:51.053Z,56.95
2019-04-05T07:43:21.198Z,58.80
2019-04-05T07:45:49.984Z,59.25
2019-04-05T07:48:18.717Z,58.38
2019-04-05T07:50:47.433Z,54.70
2019-04-05T07:53:16.199Z,59.42
2019-04-05T07:55:44.889Z,52.78
2019-04-05T07:58:13.546Z,60.23
2019-04-05T08:00:45.394Z,61.50
2019-04-05T08:03:14.063Z,61.65
2019-04-05T08:05:43.413Z,61.15
2019-04-05T08:08:15.025Z,63.58
2019-04-05T08:10:44.636Z,64.45
2019-04-05T08:13:17.793Z,58.42
2019-04-05T08:15:47.096Z,63.25
2019-04-05T08:18:15.842Z,58.28
2019-04-05T08:20:47.259Z,61.85
2019-04-05T08:23:15.935Z,61.20
2019-04-05T08:25:47.755Z,56.95
2019-04-05T08:28:16.495Z,55.58
2019-04-05T08:30:45.270Z,56.28
2019-04-05T08:33:14.011Z,58.55
2019-04-05T08:35:42.709Z,59.27
2019-04-05T08:38:11.621Z,53.55
2019-04-05T08:40:43.417Z,54.60
2019-04-05T08:43:12.084Z,57.48
2019-04-05T08:45:43.086Z,58.35
2019-04-05T08:48:11.754Z,61.33
2019-04-05T08:50:40.453Z,58.20
2019-04-05T08:53:15.442Z,56.02
2019-04-05T08:55:44.164Z,56.60
2019-04-05T08:58:13.016Z,56.23
2019-04-05T09:00:50.612Z,56.70
2019-04-05T09:03:19.852Z,55.23
2019-04-05T09:05:48.563Z,54.03
2019-04-05T09:08:24.861Z,52.60
2019-04-05T09:10:54.692Z,58.13
2019-04-05T09:13:23.533Z,55.85
2019-04-05T09:15:54.986Z,54.05
2019-04-05T09:18:23.660Z,54.73
2019-04-05T09:20:52.367Z,54.90
2019-04-05T09:23:21.319Z,54.63
2019-04-05T09:25:53.585Z,53.48
2019-04-05T09:28:24.844Z,55.73
2019-04-05T09:30:53.970Z,56.35
2019-04-05T09:33:22.697Z,56.28
2019-04-05T09:35:51.442Z,55.05
2019-04-05T09:38:20.296Z,54.48
2019-04-05T09:40:50.432Z,57.00
2019-04-05T09:43:19.202Z,57.55
2019-04-05T09:45:48.056Z,54.13
2019-04-05T09:48:16.765Z,55.35
2019-04-05T09:50:45.514Z,57.98
2019-04-05T09:53:14.273Z,54.60
2019-04-05T09:55:45.716Z,55.70
2019-04-05T09:58:14.480Z,56.05
2019-04-05T10:00:45.355Z,55.63
2019-04-05T10:03:14.129Z,56.05
2019-04-05T10:05:44.423Z,58.40
2019-04-05T10:08:13.221Z,56.53
2019-04-05T10:10:41.903Z,55.95
2019-04-05T10:13:10.693Z,57.60
2019-04-05T10:15:39.393Z,54.40
2019-04-05T10:18:08.323Z,59.90
2019-04-05T10:20:38.963Z,57.40
2019-04-05T10:23:10.524Z,58.55
2019-04-05T10:25:39.263Z,50.45
2019-04-05T10:28:08.049Z,54.23
2019-04-05T10:30:38.122Z,55.33
2019-04-05T10:33:06.876Z,51.40
2019-04-05T10:35:35.663Z,55.35
2019-04-05T10:38:04.561Z,56.35
2019-04-05T10:40:33.276Z,56.20
2019-04-05T10:43:03.489Z,55.40
2019-04-05T10:45:32.228Z,53.85
2019-04-05T10:48:01.008Z,56.42
2019-04-05T10:50:29.686Z,54.95
2019-04-05T10:52:58.453Z,53.20
2019-04-05T10:55:27.132Z,54.73
2019-04-05T10:57:55.977Z,56.73
2019-04-05T11:00:25.038Z,55.05
2019-04-05T11:02:53.752Z,52.15
2019-04-05T11:05:22.512Z,60.25
2019-04-05T11:07:51.201Z,54.03
2019-04-05T11:10:20.600Z,51.35
2019-04-05T11:12:50.097Z,57.85
2019-04-05T11:15:21.937Z,56.80
2019-04-05T11:17:50.629Z,57.43
2019-04-05T11:20:21.560Z,57.48
2019-04-05T11:22:51.285Z,57.90
2019-04-05T11:25:21.453Z,56.85
2019-04-05T11:27:50.106Z,59.20
2019-04-05T11:30:21.762Z,53.85
2019-04-05T11:32:50.509Z,54.27
2019-04-05T11:35:19.272Z,57.62
2019-04-05T11:37:50.761Z,54.27
2019-04-05T11:40:18.394Z,55.70
2019-04-05T11:42:48.647Z,57.23
2019-04-05T11:45:18.818Z,58.10
2019-04-05T11:47:47.906Z,56.40
2019-04-05T11:50:19.454Z,54.67
2019-04-05T11:52:47.820Z,56.13
2019-04-05T11:55:18.512Z,56.85
2019-04-05T11:57:49.241Z,55.58
2019-04-05T12:00:22.905Z,54.93
2019-04-05T12:03:00.948Z,54.93
2019-04-05T12:05:29.812Z,56.63
2019-04-05T12:08:01.838Z,56.55
2019-04-05T12:10:32.021Z,55.15
2019-04-05T12:12:59.911Z,52.98
2019-04-05T12:15:28.621Z,49.42
2019-04-05T12:17:59.842Z,56.95
2019-04-05T12:20:28.538Z,54.55
2019-04-05T12:22:57.221Z,53.45
2019-04-05T12:25:25.910Z,53.58
2019-04-05T12:28:05.707Z,57.10
2019-04-05T12:30:26.246Z,54.93
2019-04-05T12:32:55.003Z,59.13
2019-04-05T12:35:26.686Z,57.55
2019-04-05T12:37:56.154Z,56.23
2019-04-05T12:40:24.928Z,55.85
2019-04-05T12:42:54.177Z,51.83
2019-04-05T12:45:24.659Z,55.85
2019-04-05T12:47:53.446Z,54.80
2019-04-05T12:50:22.230Z,54.00
2019-04-05T12:52:50.989Z,53.58
2019-04-05T12:55:23.817Z,57.88
2019-04-05T12:57:50.345Z,60.90
2019-04-05T13:00:19.855Z,58.10
2019-04-05T13:02:50.289Z,60.00
2019-04-05T13:05:21.346Z,60.17
2019-04-05T13:07:50.697Z,58.85
2019-04-05T13:10:20.010Z,58.20
2019-04-05T13:12:51.622Z,58.85
2019-04-05T13:15:19.752Z,59.50
2019-04-05T13:17:48.528Z,57.38
2019-04-05T13:20:19.886Z,57.50
2019-04-05T13:22:48.675Z,55.78
2019-04-05T13:25:19.041Z,55.08
2019-04-05T13:27:54.121Z,57.38
2019-04-05T13:30:22.822Z,59.55
2019-04-05T13:32:53.408Z,60.38
2019-04-05T13:35:22.131Z,59.63
2019-04-05T13:37:50.950Z,57.38
2019-04-05T13:40:19.908Z,57.10
2019-04-05T13:42:48.881Z,57.73
2019-04-05T13:45:17.613Z,58.33
2019-04-05T13:47:46.423Z,57.60
2019-04-05T13:50:15.253Z,63.98
2019-04-05T13:52:43.945Z,62.90
2019-04-05T13:55:14.900Z,62.03
2019-04-05T13:57:43.675Z,60.85
2019-04-05T14:00:17.514Z,64.75
2019-04-05T14:02:44.677Z,65.10
2019-04-05T14:05:13.523Z,65.60
2019-04-05T14:07:42.193Z,64.67
2019-04-05T14:10:12.590Z,64.92
2019-04-05T14:12:41.431Z,65.03
2019-04-05T14:15:51.567Z,67.20
2019-04-05T14:18:20.850Z,62.10
2019-04-05T14:20:50.607Z,64.12
2019-04-05T14:23:23.045Z,61.45
2019-04-05T14:25:49.943Z,64.77
2019-04-05T14:28:18.678Z,58.63
2019-04-05T14:30:47.502Z,62.08
2019-04-05T14:33:16.269Z,58.63
2019-04-05T14:35:45.309Z,59.23
2019-04-05T14:38:16.334Z,62.73
2019-04-05T14:40:47.626Z,60.17
2019-04-05T14:43:16.401Z,62.40
2019-04-05T14:45:45.247Z,61.70
2019-04-05T14:48:14.035Z,61.98
2019-04-05T14:50:42.811Z,61.05
2019-04-05T14:53:11.490Z,62.40
2019-04-05T14:55:40.228Z,63.83
2019-04-05T14:58:10.856Z,59.08
2019-04-05T15:00:39.711Z,61.40
2019-04-05T15:03:08.413Z,56.65
2019-04-05T15:05:37.074Z,61.30
2019-04-05T15:08:05.778Z,62.48
2019-04-05T15:10:37.445Z,63.20
2019-04-05T15:13:12.182Z,63.78
2019-04-05T15:15:42.855Z,61.73
2019-04-05T15:18:11.550Z,62.55
2019-04-05T15:20:40.325Z,64.77
2019-04-05T15:23:09.785Z,63.87
2019-04-05T15:25:38.582Z,62.55
2019-04-05T15:28:10.710Z,59.27
2019-04-05T15:30:39.416Z,58.73
2019-04-05T15:33:08.082Z,56.45
2019-04-05T15:35:36.856Z,64.82
2019-04-05T15:38:05.644Z,62.65
2019-04-05T15:40:34.407Z,67.45
2019-04-05T15:43:07.004Z,61.37
2019-04-05T15:45:37.166Z,64.30
2019-04-05T15:48:06.403Z,65.70
2019-04-05T15:50:35.120Z,68.50
2019-04-05T15:53:07.034Z,68.45
2019-04-05T15:55:35.631Z,62.00
2019-04-05T15:58:04.706Z,64.92
2019-04-05T16:00:44.183Z,68.42
2019-04-05T16:03:14.697Z,64.72
2019-04-05T16:05:44.558Z,65.37
2019-04-05T16:08:14.846Z,64.72
2019-04-05T16:10:45.668Z,67.47
2019-04-05T16:13:14.413Z,67.37
2019-04-05T16:15:44.033Z,67.72
2019-04-05T16:18:12.939Z,66.30
2019-04-05T16:20:44.194Z,63.15
2019-04-05T16:23:12.213Z,62.27
2019-04-05T16:25:40.967Z,62.78
2019-04-05T16:28:13.714Z,60.30
2019-04-05T16:30:45.466Z,65.67
2019-04-05T16:33:14.138Z,59.10
2019-04-05T16:35:42.834Z,58.87
2019-04-05T16:38:11.497Z,58.20
2019-04-05T16:40:40.239Z,57.70
2019-04-05T16:43:10.433Z,59.18
2019-04-05T16:45:39.085Z,62.80
2019-04-05T16:48:07.854Z,60.85
2019-04-05T16:50:36.746Z,57.10
2019-04-05T16:53:05.451Z,58.28
2019-04-05T16:55:34.117Z,56.60
2019-04-05T16:58:02.815Z,60.00
2019-04-05T17:00:33.143Z,57.60
2019-04-05T17:03:01.860Z,55.73
2019-04-05T17:05:30.542Z,51.45
2019-04-05T17:07:59.216Z,52.80
2019-04-05T17:10:29.550Z,54.93
2019-04-05T17:13:02.554Z,53.90
2019-04-05T17:15:31.243Z,53.02
2019-04-05T17:18:00.092Z,59.03
2019-04-05T17:20:28.809Z,55.28
2019-04-05T17:22:58.816Z,54.88
2019-04-05T17:25:34.364Z,54.15
2019-04-05T17:28:00.133Z,54.03
2019-04-05T17:30:32.112Z,52.88
2019-04-05T17:33:03.640Z,55.28
2019-04-05T17:35:32.305Z,51.15
2019-04-05T17:38:01.073Z,53.05
2019-04-05T17:40:30.043Z,52.13
2019-04-05T17:43:02.273Z,52.15
2019-04-05T17:45:31.589Z,45.80
2019-04-05T17:48:00.311Z,52.23
2019-04-05T17:50:31.379Z,53.33
2019-04-05T17:53:11.259Z,50.80
2019-04-05T17:55:30.540Z,53.38
2019-04-05T17:58:00.973Z,49.50
2019-04-05T18:00:31.604Z,51.55
2019-04-05T18:03:00.275Z,53.10
2019-04-05T18:05:28.980Z,51.15
2019-04-05T18:08:00.880Z,49.95
2019-04-05T18:10:29.616Z,48.70
2019-04-05T18:13:06.144Z,48.75
2019-04-05T18:15:34.861Z,50.28
2019-04-05T18:18:03.597Z,50.70
2019-04-05T18:20:32.309Z,49.88
2019-04-05T18:23:01.254Z,54.53
2019-04-05T18:25:30.060Z,52.62
2019-04-05T18:27:58.874Z,50.88
2019-04-05T18:30:27.696Z,50.92
2019-04-05T18:32:56.473Z,52.17
2019-04-05T18:35:26.873Z,50.52
2019-04-05T18:37:55.618Z,50.52
2019-04-05T18:40:24.408Z,51.33
2019-04-05T18:42:55.905Z,51.85
2019-04-05T18:45:25.885Z,54.40
2019-04-05T18:47:54.993Z,51.48
2019-04-05T18:50:23.672Z,51.23
2019-04-05T18:52:52.960Z,52.58
2019-04-05T18:55:21.619Z,50.58
2019-04-05T18:57:50.655Z,50.92
2019-04-05T19:00:19.418Z,50.78
2019-04-05T19:02:49.588Z,50.55
2019-04-05T19:05:18.323Z,50.70
2019-04-05T19:07:47.078Z,48.20
2019-04-05T19:10:15.844Z,47.58
2019-04-05T19:12:46.192Z,48.52
2019-04-05T19:15:15.366Z,46.90
2019-04-05T19:17:44.127Z,47.53
2019-04-05T19:20:13.037Z,48.00
2019-04-05T19:22:41.658Z,45.98
2019-04-05T19:25:10.545Z,42.65
2019-04-05T19:27:39.305Z,43.33
2019-04-05T19:50:20.414Z,45.35
2019-04-05T19:52:53.129Z,43.52
2019-04-05T19:55:26.611Z,42.33
2019-04-05T19:57:55.360Z,41.68
2019-04-05T20:00:24.166Z,43.15
2019-04-05T20:02:52.960Z,38.75
2019-04-05T20:05:21.763Z,41.90
2019-04-05T20:07:50.449Z,40.92
2019-04-05T20:10:20.648Z,43.45
2019-04-05T20:12:49.368Z,41.53
2019-04-05T20:15:19.546Z,40.92
2019-04-05T20:17:48.247Z,40.95
2019-04-05T20:20:17.809Z,41.37
2019-04-05T20:22:48.009Z,39.65
2019-04-05T20:25:18.266Z,40.40
2019-04-05T20:27:47.032Z,45.63
2019-04-05T20:30:28.950Z,42.15
2019-04-05T20:32:59.529Z,41.53
2019-04-05T20:35:28.222Z,46.25
2019-04-05T20:37:56.936Z,43.33
2019-04-05T20:40:25.708Z,44.30
2019-04-05T20:42:54.820Z,45.40
2019-04-05T20:45:23.954Z,42.45
2019-04-05T20:47:53.849Z,43.17
2019-04-05T20:50:22.560Z,35.68
2019-04-05T20:52:53.402Z,40.85
2019-04-05T20:55:22.078Z,39.63
2019-04-05T20:57:50.785Z,42.98
2019-04-05T21:00:19.622Z,44.23
2019-04-05T21:02:48.648Z,41.98
2019-04-05T21:05:25.646Z,41.58
2019-04-05T21:07:51.090Z,44.20
2019-04-05T21:10:20.371Z,39.00
2019-04-05T21:12:51.788Z,42.38
2019-04-05T21:15:23.468Z,42.95
2019-04-05T21:17:53.791Z,40.17
2019-04-05T21:20:22.537Z,42.27
2019-04-05T21:22:55.619Z,40.50
2019-04-05T21:25:24.433Z,39.98
2019-04-05T21:27:53.192Z,38.83
2019-04-05T21:30:21.908Z,41.42
2019-04-05T21:32:50.674Z,40.55
2019-04-05T21:35:19.399Z,38.53
2019-04-05T21:37:48.146Z,37.03
2019-04-05T21:40:17.474Z,40.55
2019-04-05T21:42:46.250Z,38.63
2019-04-05T21:45:14.986Z,35.88
2019-04-05T21:47:43.673Z,40.43
2019-04-05T21:50:12.511Z,38.13
2019-04-05T21:52:41.215Z,38.08
2019-04-05T21:55:10.172Z,34.43
2019-04-05T21:57:38.926Z,38.70
2019-04-05T22:00:10.650Z,37.88
2019-04-05T22:02:41.662Z,40.20
2019-04-05T22:05:11.023Z,38.88
2019-04-05T22:07:39.715Z,39.45
2019-04-05T22:10:09.954Z,39.98
2019-04-05T22:12:42.356Z,41.40
2019-04-05T22:15:11.130Z,41.33
2019-04-05T22:17:39.906Z,37.53
2019-04-05T22:20:09.137Z,39.95
2019-04-05T22:22:37.882Z,37.42
2019-04-05T22:25:07.809Z,37.85
2019-04-05T22:27:36.887Z,38.13
2019-04-05T22:30:09.238Z,32.98
2019-04-05T22:32:39.882Z,38.35
2019-04-05T22:35:11.651Z,40.25
2019-04-05T22:37:40.449Z,38.40
2019-04-05T22:40:11.622Z,39.75
2019-04-05T22:42:40.353Z,36.03
2019-04-05T22:45:09.264Z,42.05
2019-04-05T22:47:39.701Z,38.58
2019-04-05T22:50:10.145Z,41.15
2019-04-05T22:52:38.976Z,40.28
2019-04-05T22:55:11.410Z,42.35
2019-04-05T22:57:39.699Z,41.18
2019-04-05T23:00:09.051Z,43.92
2019-04-05T23:02:39.451Z,35.30
2019-04-05T23:05:11.413Z,39.98
2019-04-05T23:07:40.209Z,42.33
2019-04-05T23:10:09.825Z,35.95
2019-04-05T23:12:38.579Z,29.72
2019-04-05T23:15:12.067Z,31.73
2019-04-05T23:17:40.757Z,33.25
2019-04-05T23:20:10.482Z,37.63
2019-04-05T23:22:40.109Z,33.85
2019-04-05T23:25:08.927Z,34.00
2019-04-05T23:27:37.676Z,35.23
2019-04-05T23:30:07.575Z,31.00
2019-04-05T23:32:36.267Z,34.18
2019-04-05T23:35:06.920Z,35.28
2019-04-05T23:37:35.614Z,35.95
2019-04-05T23:40:06.283Z,36.93
2019-04-05T23:42:35.039Z,39.30
2019-04-05T23:45:04.738Z,36.48
2019-04-05T23:47:33.429Z,39.05
2019-04-05T23:50:03.337Z,35.35
2019-04-05T23:52:32.061Z,38.53
2019-04-05T23:55:00.857Z,38.05
2019-04-05T23:57:29.653Z,36.83
2019-04-05T23:59:58.425Z,36.05
